sensor_id;sensor_type;location;lat;lon;timestamp;P1;durP1;ratioP1;P2;durP2;ratioP2
11761;SDS011;5938;47.098;15.474;2022-11-18T00:00:41;25.73;;;16.83;;
11761;SDS011;5938;47.098;15.474;2022-11-18T00:04:44;25.53;;;16.33;;
11761;SDS011;5938;47.098;15.474;2022-11-18T00:08:49;30.93;;;17.23;;
11761;SDS011;5938;47.098;15.474;2022-11-18T00:12:52;30.33;;;18.10;;
11761;SDS011;5938;47.098;15.474;2022-11-18T00:17:12;26.37;;;17.23;;
11761;SDS011;5938;47.098;15.474;2022-11-18T00:21:16;23.00;;;16.23;;
11761;SDS011;5938;47.098;15.474;2022-11-18T00:25:21;28.90;;;18.13;;
11761;SDS011;5938;47.098;15.474;2022-11-18T00:29:24;23.63;;;15.40;;
11761;SDS011;5938;47.098;15.474;2022-11-18T00:33:29;26.73;;;17.33;;
11761;SDS011;5938;47.098;15.474;2022-11-18T00:37:33;30.77;;;17.40;;
11761;SDS011;5938;47.098;15.474;2022-11-18T00:41:37;26.60;;;18.33;;
11761;SDS011;5938;47.098;15.474;2022-11-18T00:45:59;36.10;;;19.37;;
11761;SDS011;5938;47.098;15.474;2022-11-18T00:50:02;27.90;;;18.03;;
11761;SDS011;5938;47.098;15.474;2022-11-18T00:54:06;32.20;;;18.17;;
11761;SDS011;5938;47.098;15.474;2022-11-18T00:58:10;33.30;;;19.80;;
11761;SDS011;5938;47.098;15.474;2022-11-18T01:02:15;28.13;;;18.47;;
11761;SDS011;5938;47.098;15.474;2022-11-18T01:06:18;29.20;;;18.30;;
11761;SDS011;5938;47.098;15.474;2022-11-18T01:10:22;31.13;;;20.17;;
11761;SDS011;5938;47.098;15.474;2022-11-18T01:14:26;31.40;;;19.60;;
11761;SDS011;5938;47.098;15.474;2022-11-18T01:18:30;28.23;;;19.17;;
11761;SDS011;5938;47.098;15.474;2022-11-18T01:22:33;29.60;;;20.03;;
11761;SDS011;5938;47.098;15.474;2022-11-18T01:26:36;28.70;;;20.53;;
11761;SDS011;5938;47.098;15.474;2022-11-18T01:30:41;27.87;;;19.70;;
11761;SDS011;5938;47.098;15.474;2022-11-18T01:34:44;32.63;;;18.97;;
11761;SDS011;5938;47.098;15.474;2022-11-18T01:38:48;26.67;;;18.20;;
11761;SDS011;5938;47.098;15.474;2022-11-18T01:42:52;25.83;;;17.97;;
11761;SDS011;5938;47.098;15.474;2022-11-18T01:46:56;31.60;;;19.87;;
11761;SDS011;5938;47.098;15.474;2022-11-18T01:51:00;33.80;;;20.90;;
11761;SDS011;5938;47.098;15.474;2022-11-18T01:55:09;33.30;;;19.70;;
11761;SDS011;5938;47.098;15.474;2022-11-18T01:59:16;48.30;;;23.80;;
11761;SDS011;5938;47.098;15.474;2022-11-18T02:03:24;49.33;;;23.87;;
11761;SDS011;5938;47.098;15.474;2022-11-18T02:07:28;40.53;;;24.30;;
11761;SDS011;5938;47.098;15.474;2022-11-18T02:11:33;43.43;;;23.20;;
11761;SDS011;5938;47.098;15.474;2022-11-18T02:15:57;46.13;;;26.10;;
11761;SDS011;5938;47.098;15.474;2022-11-18T02:24:39;55.00;;;26.57;;
11761;SDS011;5938;47.098;15.474;2022-11-18T02:28:54;53.40;;;26.33;;
11761;SDS011;5938;47.098;15.474;2022-11-18T02:33:03;46.07;;;25.77;;
11761;SDS011;5938;47.098;15.474;2022-11-18T02:37:11;39.77;;;24.00;;
11761;SDS011;5938;47.098;15.474;2022-11-18T02:41:20;43.83;;;25.10;;
11761;SDS011;5938;47.098;15.474;2022-11-18T02:45:29;41.37;;;23.30;;
11761;SDS011;5938;47.098;15.474;2022-11-18T02:49:35;39.10;;;21.27;;
11761;SDS011;5938;47.098;15.474;2022-11-18T02:53:41;45.87;;;23.67;;
11761;SDS011;5938;47.098;15.474;2022-11-18T02:57:47;34.90;;;22.10;;
11761;SDS011;5938;47.098;15.474;2022-11-18T03:01:53;38.30;;;21.77;;
11761;SDS011;5938;47.098;15.474;2022-11-18T03:05:59;32.93;;;20.30;;
11761;SDS011;5938;47.098;15.474;2022-11-18T03:10:09;34.83;;;21.40;;
11761;SDS011;5938;47.098;15.474;2022-11-18T03:14:15;32.93;;;19.70;;
11761;SDS011;5938;47.098;15.474;2022-11-18T03:18:27;28.57;;;18.67;;
11761;SDS011;5938;47.098;15.474;2022-11-18T03:22:35;34.00;;;20.17;;
11761;SDS011;5938;47.098;15.474;2022-11-18T03:26:45;31.97;;;20.57;;
11761;SDS011;5938;47.098;15.474;2022-11-18T03:30:55;33.50;;;20.23;;
11761;SDS011;5938;47.098;15.474;2022-11-18T03:35:06;38.47;;;20.77;;
11761;SDS011;5938;47.098;15.474;2022-11-18T03:39:12;42.40;;;22.50;;
11761;SDS011;5938;47.098;15.474;2022-11-18T03:43:21;37.30;;;20.63;;
11761;SDS011;5938;47.098;15.474;2022-11-18T03:47:29;37.37;;;20.80;;
11761;SDS011;5938;47.098;15.474;2022-11-18T03:51:38;35.70;;;20.40;;
11761;SDS011;5938;47.098;15.474;2022-11-18T03:55:45;34.60;;;18.77;;
11761;SDS011;5938;47.098;15.474;2022-11-18T03:59:52;35.17;;;20.90;;
11761;SDS011;5938;47.098;15.474;2022-11-18T04:04:01;35.60;;;20.37;;
11761;SDS011;5938;47.098;15.474;2022-11-18T04:08:08;34.90;;;18.77;;
11761;SDS011;5938;47.098;15.474;2022-11-18T04:12:15;33.93;;;21.23;;
11761;SDS011;5938;47.098;15.474;2022-11-18T04:16:21;33.67;;;19.97;;
11761;SDS011;5938;47.098;15.474;2022-11-18T04:20:25;27.77;;;17.83;;
11761;SDS011;5938;47.098;15.474;2022-11-18T04:24:30;24.97;;;16.60;;
11761;SDS011;5938;47.098;15.474;2022-11-18T04:28:33;27.87;;;17.63;;
11761;SDS011;5938;47.098;15.474;2022-11-18T04:32:37;22.67;;;14.97;;
11761;SDS011;5938;47.098;15.474;2022-11-18T04:36:40;27.77;;;17.40;;
11761;SDS011;5938;47.098;15.474;2022-11-18T04:40:46;33.23;;;19.67;;
11761;SDS011;5938;47.098;15.474;2022-11-18T04:44:49;32.83;;;18.70;;
11761;SDS011;5938;47.098;15.474;2022-11-18T04:48:52;28.27;;;18.63;;
11761;SDS011;5938;47.098;15.474;2022-11-18T04:52:55;26.77;;;16.70;;
11761;SDS011;5938;47.098;15.474;2022-11-18T04:57:00;26.20;;;16.77;;
11761;SDS011;5938;47.098;15.474;2022-11-18T05:01:03;28.40;;;17.10;;
11761;SDS011;5938;47.098;15.474;2022-11-18T05:05:07;22.73;;;16.30;;
11761;SDS011;5938;47.098;15.474;2022-11-18T05:09:11;25.40;;;16.73;;
11761;SDS011;5938;47.098;15.474;2022-11-18T05:13:15;31.47;;;17.87;;
11761;SDS011;5938;47.098;15.474;2022-11-18T05:17:19;24.47;;;17.60;;
11761;SDS011;5938;47.098;15.474;2022-11-18T05:21:22;22.20;;;15.87;;
11761;SDS011;5938;47.098;15.474;2022-11-18T05:25:27;26.40;;;15.70;;
11761;SDS011;5938;47.098;15.474;2022-11-18T05:29:37;25.13;;;16.67;;
11761;SDS011;5938;47.098;15.474;2022-11-18T05:33:41;27.47;;;17.77;;
11761;SDS011;5938;47.098;15.474;2022-11-18T05:37:45;22.60;;;15.60;;
11761;SDS011;5938;47.098;15.474;2022-11-18T05:41:48;28.17;;;14.70;;
11761;SDS011;5938;47.098;15.474;2022-11-18T05:46:10;23.07;;;16.47;;
11761;SDS011;5938;47.098;15.474;2022-11-18T05:50:14;20.13;;;14.20;;
11761;SDS011;5938;47.098;15.474;2022-11-18T05:54:21;27.30;;;19.10;;
11761;SDS011;5938;47.098;15.474;2022-11-18T05:58:25;23.13;;;16.80;;
11761;SDS011;5938;47.098;15.474;2022-11-18T06:02:30;26.87;;;17.27;;
11761;SDS011;5938;47.098;15.474;2022-11-18T06:06:34;28.10;;;16.50;;
11761;SDS011;5938;47.098;15.474;2022-11-18T06:10:37;24.20;;;17.27;;
11761;SDS011;5938;47.098;15.474;2022-11-18T06:15:00;25.87;;;17.13;;
11761;SDS011;5938;47.098;15.474;2022-11-18T06:19:08;32.33;;;20.53;;
11761;SDS011;5938;47.098;15.474;2022-11-18T06:23:11;25.63;;;20.50;;
11761;SDS011;5938;47.098;15.474;2022-11-18T06:27:15;27.47;;;18.87;;
11761;SDS011;5938;47.098;15.474;2022-11-18T06:31:19;28.40;;;20.30;;
11761;SDS011;5938;47.098;15.474;2022-11-18T06:35:24;26.37;;;17.27;;
11761;SDS011;5938;47.098;15.474;2022-11-18T06:39:27;25.77;;;16.23;;
11761;SDS011;5938;47.098;15.474;2022-11-18T06:43:31;27.90;;;18.60;;
11761;SDS011;5938;47.098;15.474;2022-11-18T06:47:42;23.73;;;16.13;;
11761;SDS011;5938;47.098;15.474;2022-11-18T06:51:46;26.53;;;16.20;;
11761;SDS011;5938;47.098;15.474;2022-11-18T06:55:50;21.17;;;14.80;;
11761;SDS011;5938;47.098;15.474;2022-11-18T06:59:54;27.37;;;15.93;;
11761;SDS011;5938;47.098;15.474;2022-11-18T07:04:02;20.10;;;14.23;;
11761;SDS011;5938;47.098;15.474;2022-11-18T07:08:08;21.93;;;14.47;;
11761;SDS011;5938;47.098;15.474;2022-11-18T07:12:11;21.00;;;14.33;;
11761;SDS011;5938;47.098;15.474;2022-11-18T07:16:15;23.83;;;15.77;;
11761;SDS011;5938;47.098;15.474;2022-11-18T07:20:20;20.93;;;15.70;;
11761;SDS011;5938;47.098;15.474;2022-11-18T07:24:25;26.40;;;17.83;;
11761;SDS011;5938;47.098;15.474;2022-11-18T07:28:28;23.60;;;16.20;;
11761;SDS011;5938;47.098;15.474;2022-11-18T07:32:32;23.27;;;15.93;;
11761;SDS011;5938;47.098;15.474;2022-11-18T07:36:35;18.87;;;14.17;;
11761;SDS011;5938;47.098;15.474;2022-11-18T07:40:40;19.13;;;13.43;;
11761;SDS011;5938;47.098;15.474;2022-11-18T07:44:44;21.40;;;13.70;;
11761;SDS011;5938;47.098;15.474;2022-11-18T07:48:48;24.03;;;15.20;;
11761;SDS011;5938;47.098;15.474;2022-11-18T07:52:53;18.30;;;13.00;;
11761;SDS011;5938;47.098;15.474;2022-11-18T07:56:59;15.60;;;12.30;;
11761;SDS011;5938;47.098;15.474;2022-11-18T08:01:06;20.00;;;13.53;;
11761;SDS011;5938;47.098;15.474;2022-11-18T08:05:10;15.10;;;12.40;;
11761;SDS011;5938;47.098;15.474;2022-11-18T08:09:18;12.93;;;10.67;;
11761;SDS011;5938;47.098;15.474;2022-11-18T08:13:23;18.00;;;13.47;;
11761;SDS011;5938;47.098;15.474;2022-11-18T08:17:27;16.67;;;11.30;;
11761;SDS011;5938;47.098;15.474;2022-11-18T08:21:31;12.20;;;10.67;;
11761;SDS011;5938;47.098;15.474;2022-11-18T08:25:34;15.50;;;12.00;;
11761;SDS011;5938;47.098;15.474;2022-11-18T08:29:39;15.60;;;11.80;;
11761;SDS011;5938;47.098;15.474;2022-11-18T08:33:42;13.57;;;10.50;;
11761;SDS011;5938;47.098;15.474;2022-11-18T08:37:46;15.47;;;10.70;;
11761;SDS011;5938;47.098;15.474;2022-11-18T08:41:49;13.60;;;10.43;;
11761;SDS011;5938;47.098;15.474;2022-11-18T08:45:54;13.00;;;10.27;;
11761;SDS011;5938;47.098;15.474;2022-11-18T08:49:57;11.30;;;9.33;;
11761;SDS011;5938;47.098;15.474;2022-11-18T08:54:01;12.60;;;9.90;;
11761;SDS011;5938;47.098;15.474;2022-11-18T08:58:04;11.53;;;9.50;;
11761;SDS011;5938;47.098;15.474;2022-11-18T09:02:13;10.97;;;9.03;;
11761;SDS011;5938;47.098;15.474;2022-11-18T09:06:18;11.53;;;9.53;;
11761;SDS011;5938;47.098;15.474;2022-11-18T09:10:23;12.77;;;10.70;;
11761;SDS011;5938;47.098;15.474;2022-11-18T09:14:26;11.47;;;9.97;;
11761;SDS011;5938;47.098;15.474;2022-11-18T09:18:52;14.00;;;10.80;;
11761;SDS011;5938;47.098;15.474;2022-11-18T09:22:58;14.50;;;10.77;;
11761;SDS011;5938;47.098;15.474;2022-11-18T09:27:02;12.50;;;9.87;;
11761;SDS011;5938;47.098;15.474;2022-11-18T09:31:06;11.37;;;9.90;;
11761;SDS011;5938;47.098;15.474;2022-11-18T09:35:12;11.87;;;10.10;;
11761;SDS011;5938;47.098;15.474;2022-11-18T09:39:16;11.60;;;10.40;;
11761;SDS011;5938;47.098;15.474;2022-11-18T09:43:20;11.87;;;10.27;;
11761;SDS011;5938;47.098;15.474;2022-11-18T09:47:32;12.80;;;11.10;;
11761;SDS011;5938;47.098;15.474;2022-11-18T09:51:38;10.93;;;9.80;;
11761;SDS011;5938;47.098;15.474;2022-11-18T09:55:43;13.13;;;9.97;;
11761;SDS011;5938;47.098;15.474;2022-11-18T09:59:47;10.83;;;9.13;;
11761;SDS011;5938;47.098;15.474;2022-11-18T10:03:50;13.43;;;10.53;;
11761;SDS011;5938;47.098;15.474;2022-11-18T10:12:29;11.90;;;10.50;;
11761;SDS011;5938;47.098;15.474;2022-11-18T10:16:41;12.90;;;10.33;;
11761;SDS011;5938;47.098;15.474;2022-11-18T10:20:58;14.10;;;12.13;;
11761;SDS011;5938;47.098;15.474;2022-11-18T10:25:11;13.67;;;11.30;;
11761;SDS011;5938;47.098;15.474;2022-11-18T10:29:16;15.90;;;12.73;;
11761;SDS011;5938;47.098;15.474;2022-11-18T10:33:23;9.77;;;8.73;;
11761;SDS011;5938;47.098;15.474;2022-11-18T10:37:28;11.47;;;10.40;;
11761;SDS011;5938;47.098;15.474;2022-11-18T10:41:55;13.97;;;10.77;;
11761;SDS011;5938;47.098;15.474;2022-11-18T10:46:14;23.53;;;16.30;;
11761;SDS011;5938;47.098;15.474;2022-11-18T10:50:50;13.73;;;11.27;;
11761;SDS011;5938;47.098;15.474;2022-11-18T10:55:17;13.33;;;11.93;;
11761;SDS011;5938;47.098;15.474;2022-11-18T10:59:27;12.17;;;10.43;;
11761;SDS011;5938;47.098;15.474;2022-11-18T11:03:34;15.20;;;11.37;;
11761;SDS011;5938;47.098;15.474;2022-11-18T11:07:39;15.60;;;11.73;;
11761;SDS011;5938;47.098;15.474;2022-11-18T11:11:53;15.27;;;12.63;;
11761;SDS011;5938;47.098;15.474;2022-11-18T11:16:01;14.80;;;11.60;;
11761;SDS011;5938;47.098;15.474;2022-11-18T11:20:12;15.83;;;13.30;;
11761;SDS011;5938;47.098;15.474;2022-11-18T11:24:20;21.43;;;15.97;;
11761;SDS011;5938;47.098;15.474;2022-11-18T11:28:28;17.93;;;14.93;;
11761;SDS011;5938;47.098;15.474;2022-11-18T11:32:55;17.90;;;14.23;;
11761;SDS011;5938;47.098;15.474;2022-11-18T11:37:18;14.27;;;12.70;;
11761;SDS011;5938;47.098;15.474;2022-11-18T11:41:29;18.03;;;13.20;;
11761;SDS011;5938;47.098;15.474;2022-11-18T11:45:39;19.13;;;13.83;;
11761;SDS011;5938;47.098;15.474;2022-11-18T11:49:59;16.30;;;14.00;;
11761;SDS011;5938;47.098;15.474;2022-11-18T11:54:15;15.43;;;13.83;;
11761;SDS011;5938;47.098;15.474;2022-11-18T11:58:41;19.73;;;14.27;;
11761;SDS011;5938;47.098;15.474;2022-11-18T12:03:06;18.13;;;14.50;;
11761;SDS011;5938;47.098;15.474;2022-11-18T12:07:26;20.53;;;15.37;;
11761;SDS011;5938;47.098;15.474;2022-11-18T12:11:33;18.30;;;15.77;;
11761;SDS011;5938;47.098;15.474;2022-11-18T12:15:45;17.77;;;14.20;;
11761;SDS011;5938;47.098;15.474;2022-11-18T12:19:55;16.43;;;14.10;;
11761;SDS011;5938;47.098;15.474;2022-11-18T12:24:23;15.10;;;13.40;;
11761;SDS011;5938;47.098;15.474;2022-11-18T12:28:33;17.70;;;14.10;;
11761;SDS011;5938;47.098;15.474;2022-11-18T12:32:38;21.87;;;16.67;;
11761;SDS011;5938;47.098;15.474;2022-11-18T12:36:43;20.83;;;16.63;;
11761;SDS011;5938;47.098;15.474;2022-11-18T12:40:49;17.70;;;14.93;;
11761;SDS011;5938;47.098;15.474;2022-11-18T12:54:31;17.97;;;14.80;;
11761;SDS011;5938;47.098;15.474;2022-11-18T12:58:37;17.77;;;14.80;;
11761;SDS011;5938;47.098;15.474;2022-11-18T13:02:49;19.57;;;16.50;;
11761;SDS011;5938;47.098;15.474;2022-11-18T13:06:53;19.60;;;16.60;;
11761;SDS011;5938;47.098;15.474;2022-11-18T13:11:06;16.40;;;14.20;;
11761;SDS011;5938;47.098;15.474;2022-11-18T13:15:34;16.00;;;14.30;;
11761;SDS011;5938;47.098;15.474;2022-11-18T13:20:01;16.00;;;14.13;;
11761;SDS011;5938;47.098;15.474;2022-11-18T13:24:05;23.43;;;15.87;;
11761;SDS011;5938;47.098;15.474;2022-11-18T13:28:10;17.53;;;15.60;;
11761;SDS011;5938;47.098;15.474;2022-11-18T13:32:24;20.93;;;16.30;;
11761;SDS011;5938;47.098;15.474;2022-11-18T13:36:30;18.70;;;16.70;;
11761;SDS011;5938;47.098;15.474;2022-11-18T13:40:37;19.17;;;16.07;;
11761;SDS011;5938;47.098;15.474;2022-11-18T13:45:11;18.57;;;15.30;;
11761;SDS011;5938;47.098;15.474;2022-11-18T13:49:17;22.23;;;16.60;;
11761;SDS011;5938;47.098;15.474;2022-11-18T13:53:26;24.17;;;18.50;;
11761;SDS011;5938;47.098;15.474;2022-11-18T13:57:31;24.03;;;17.20;;
11761;SDS011;5938;47.098;15.474;2022-11-18T14:01:37;25.07;;;19.27;;
11761;SDS011;5938;47.098;15.474;2022-11-18T14:05:42;23.20;;;18.40;;
11761;SDS011;5938;47.098;15.474;2022-11-18T14:09:58;21.63;;;17.70;;
11761;SDS011;5938;47.098;15.474;2022-11-18T14:14:03;24.97;;;17.07;;
11761;SDS011;5938;47.098;15.474;2022-11-18T14:18:13;22.40;;;17.70;;
11761;SDS011;5938;47.098;15.474;2022-11-18T14:22:24;23.50;;;18.57;;
11761;SDS011;5938;47.098;15.474;2022-11-18T14:26:30;23.07;;;18.80;;
11761;SDS011;5938;47.098;15.474;2022-11-18T14:30:35;22.57;;;17.40;;
11761;SDS011;5938;47.098;15.474;2022-11-18T14:34:40;23.20;;;16.67;;
11761;SDS011;5938;47.098;15.474;2022-11-18T14:38:46;22.73;;;17.33;;
11761;SDS011;5938;47.098;15.474;2022-11-18T14:43:10;20.13;;;16.47;;
11761;SDS011;5938;47.098;15.474;2022-11-18T14:47:16;23.10;;;17.20;;
11761;SDS011;5938;47.098;15.474;2022-11-18T14:51:24;26.07;;;16.83;;
11761;SDS011;5938;47.098;15.474;2022-11-18T14:55:29;24.97;;;18.00;;
11761;SDS011;5938;47.098;15.474;2022-11-18T14:59:32;21.43;;;16.40;;
11761;SDS011;5938;47.098;15.474;2022-11-18T15:03:35;28.50;;;19.00;;
11761;SDS011;5938;47.098;15.474;2022-11-18T15:07:39;24.20;;;18.20;;
11761;SDS011;5938;47.098;15.474;2022-11-18T15:11:44;22.67;;;18.10;;
11761;SDS011;5938;47.098;15.474;2022-11-18T15:15:47;22.23;;;17.37;;
11761;SDS011;5938;47.098;15.474;2022-11-18T15:19:51;23.23;;;17.83;;
11761;SDS011;5938;47.098;15.474;2022-11-18T15:23:54;25.30;;;19.30;;
11761;SDS011;5938;47.098;15.474;2022-11-18T15:27:59;28.97;;;20.03;;
11761;SDS011;5938;47.098;15.474;2022-11-18T15:32:02;30.70;;;23.03;;
11761;SDS011;5938;47.098;15.474;2022-11-18T15:36:08;28.60;;;21.50;;
11761;SDS011;5938;47.098;15.474;2022-11-18T15:40:14;27.63;;;20.40;;
11761;SDS011;5938;47.098;15.474;2022-11-18T15:44:19;25.33;;;19.40;;
11761;SDS011;5938;47.098;15.474;2022-11-18T15:48:23;24.97;;;19.63;;
11761;SDS011;5938;47.098;15.474;2022-11-18T15:52:26;25.93;;;18.97;;
11761;SDS011;5938;47.098;15.474;2022-11-18T15:56:30;28.97;;;19.73;;
11761;SDS011;5938;47.098;15.474;2022-11-18T16:00:39;26.73;;;19.30;;
11761;SDS011;5938;47.098;15.474;2022-11-18T16:04:45;27.07;;;19.00;;
11761;SDS011;5938;47.098;15.474;2022-11-18T16:08:49;26.17;;;18.33;;
11761;SDS011;5938;47.098;15.474;2022-11-18T16:12:59;24.47;;;18.07;;
11761;SDS011;5938;47.098;15.474;2022-11-18T16:17:04;33.73;;;21.60;;
11761;SDS011;5938;47.098;15.474;2022-11-18T16:21:07;31.20;;;23.90;;
11761;SDS011;5938;47.098;15.474;2022-11-18T16:25:11;32.43;;;24.37;;
11761;SDS011;5938;47.098;15.474;2022-11-18T16:29:14;33.73;;;20.83;;
11761;SDS011;5938;47.098;15.474;2022-11-18T16:33:20;26.37;;;20.73;;
11761;SDS011;5938;47.098;15.474;2022-11-18T16:37:24;30.57;;;22.20;;
11761;SDS011;5938;47.098;15.474;2022-11-18T16:41:28;37.30;;;24.90;;
11761;SDS011;5938;47.098;15.474;2022-11-18T16:45:34;32.23;;;23.53;;
11761;SDS011;5938;47.098;15.474;2022-11-18T16:49:39;29.00;;;24.13;;
11761;SDS011;5938;47.098;15.474;2022-11-18T16:53:43;32.10;;;22.10;;
11761;SDS011;5938;47.098;15.474;2022-11-18T16:57:51;36.43;;;24.73;;
11761;SDS011;5938;47.098;15.474;2022-11-18T17:01:55;26.60;;;20.17;;
11761;SDS011;5938;47.098;15.474;2022-11-18T17:06:01;30.00;;;21.10;;
11761;SDS011;5938;47.098;15.474;2022-11-18T17:10:05;28.33;;;20.37;;
11761;SDS011;5938;47.098;15.474;2022-11-18T17:14:20;27.63;;;21.20;;
11761;SDS011;5938;47.098;15.474;2022-11-18T17:18:23;28.13;;;21.60;;
11761;SDS011;5938;47.098;15.474;2022-11-18T17:22:47;30.83;;;21.67;;
11761;SDS011;5938;47.098;15.474;2022-11-18T17:26:51;28.43;;;20.67;;
11761;SDS011;5938;47.098;15.474;2022-11-18T17:30:56;36.40;;;23.07;;
11761;SDS011;5938;47.098;15.474;2022-11-18T17:34:59;34.77;;;22.77;;
11761;SDS011;5938;47.098;15.474;2022-11-18T17:39:04;38.17;;;24.53;;
11761;SDS011;5938;47.098;15.474;2022-11-18T17:43:09;33.33;;;26.40;;
11761;SDS011;5938;47.098;15.474;2022-11-18T17:47:13;32.57;;;24.90;;
11761;SDS011;5938;47.098;15.474;2022-11-18T17:51:17;30.87;;;23.53;;
11761;SDS011;5938;47.098;15.474;2022-11-18T17:55:22;28.03;;;21.70;;
11761;SDS011;5938;47.098;15.474;2022-11-18T17:59:29;29.77;;;24.20;;
11761;SDS011;5938;47.098;15.474;2022-11-18T18:03:57;35.00;;;25.17;;
11761;SDS011;5938;47.098;15.474;2022-11-18T18:08:29;40.57;;;28.37;;
11761;SDS011;5938;47.098;15.474;2022-11-18T18:12:36;49.53;;;31.70;;
11761;SDS011;5938;47.098;15.474;2022-11-18T18:17:00;49.27;;;31.97;;
11761;SDS011;5938;47.098;15.474;2022-11-18T18:21:09;40.63;;;27.87;;
11761;SDS011;5938;47.098;15.474;2022-11-18T18:25:13;44.90;;;30.87;;
11761;SDS011;5938;47.098;15.474;2022-11-18T18:29:19;40.87;;;27.30;;
11761;SDS011;5938;47.098;15.474;2022-11-18T18:33:24;39.00;;;27.10;;
11761;SDS011;5938;47.098;15.474;2022-11-18T18:37:33;33.13;;;24.17;;
11761;SDS011;5938;47.098;15.474;2022-11-18T18:41:38;37.13;;;27.20;;
11761;SDS011;5938;47.098;15.474;2022-11-18T18:45:44;37.60;;;23.50;;
11761;SDS011;5938;47.098;15.474;2022-11-18T18:50:06;32.67;;;25.20;;
11761;SDS011;5938;47.098;15.474;2022-11-18T18:54:11;32.67;;;23.43;;
11761;SDS011;5938;47.098;15.474;2022-11-18T18:58:17;30.50;;;23.07;;
11761;SDS011;5938;47.098;15.474;2022-11-18T19:02:26;37.57;;;25.30;;
11761;SDS011;5938;47.098;15.474;2022-11-18T19:06:31;41.80;;;28.10;;
11761;SDS011;5938;47.098;15.474;2022-11-18T19:10:59;41.23;;;28.93;;
11761;SDS011;5938;47.098;15.474;2022-11-18T19:15:32;35.17;;;29.07;;
11761;SDS011;5938;47.098;15.474;2022-11-18T19:19:41;39.33;;;30.10;;
11761;SDS011;5938;47.098;15.474;2022-11-18T19:24:04;36.87;;;31.77;;
11761;SDS011;5938;47.098;15.474;2022-11-18T19:28:31;42.33;;;31.33;;
11761;SDS011;5938;47.098;15.474;2022-11-18T19:32:37;43.17;;;31.83;;
11761;SDS011;5938;47.098;15.474;2022-11-18T19:36:45;48.87;;;34.70;;
11761;SDS011;5938;47.098;15.474;2022-11-18T19:40:51;44.73;;;33.20;;
11761;SDS011;5938;47.098;15.474;2022-11-18T19:45:02;42.17;;;33.33;;
11761;SDS011;5938;47.098;15.474;2022-11-18T19:49:08;44.20;;;32.27;;
11761;SDS011;5938;47.098;15.474;2022-11-18T19:53:14;40.37;;;27.40;;
11761;SDS011;5938;47.098;15.474;2022-11-18T19:57:37;45.50;;;32.10;;
11761;SDS011;5938;47.098;15.474;2022-11-18T20:01:44;50.23;;;31.70;;
11761;SDS011;5938;47.098;15.474;2022-11-18T20:05:51;43.27;;;30.80;;
11761;SDS011;5938;47.098;15.474;2022-11-18T20:09:57;42.20;;;31.40;;
11761;SDS011;5938;47.098;15.474;2022-11-18T20:14:01;44.73;;;32.10;;
11761;SDS011;5938;47.098;15.474;2022-11-18T20:18:06;51.00;;;33.43;;
11761;SDS011;5938;47.098;15.474;2022-11-18T20:22:18;42.00;;;31.20;;
11761;SDS011;5938;47.098;15.474;2022-11-18T20:26:29;49.50;;;30.40;;
11761;SDS011;5938;47.098;15.474;2022-11-18T20:30:35;51.00;;;32.73;;
11761;SDS011;5938;47.098;15.474;2022-11-18T20:34:39;44.70;;;28.80;;
11761;SDS011;5938;47.098;15.474;2022-11-18T20:38:47;39.13;;;28.60;;
11761;SDS011;5938;47.098;15.474;2022-11-18T20:42:55;42.93;;;28.17;;
11761;SDS011;5938;47.098;15.474;2022-11-18T20:47:15;46.43;;;31.10;;
11761;SDS011;5938;47.098;15.474;2022-11-18T20:51:20;75.20;;;30.37;;
11761;SDS011;5938;47.098;15.474;2022-11-18T20:55:26;46.47;;;27.73;;
11761;SDS011;5938;47.098;15.474;2022-11-18T20:59:32;52.93;;;34.50;;
11761;SDS011;5938;47.098;15.474;2022-11-18T21:03:36;44.27;;;32.13;;
11761;SDS011;5938;47.098;15.474;2022-11-18T21:07:41;38.67;;;27.77;;
11761;SDS011;5938;47.098;15.474;2022-11-18T21:11:45;30.13;;;23.30;;
11761;SDS011;5938;47.098;15.474;2022-11-18T21:15:54;33.73;;;23.50;;
11761;SDS011;5938;47.098;15.474;2022-11-18T21:20:00;35.73;;;24.10;;
11761;SDS011;5938;47.098;15.474;2022-11-18T21:24:26;27.90;;;21.00;;
11761;SDS011;5938;47.098;15.474;2022-11-18T21:28:31;29.10;;;19.93;;
11761;SDS011;5938;47.098;15.474;2022-11-18T21:32:36;30.30;;;19.93;;
11761;SDS011;5938;47.098;15.474;2022-11-18T21:36:40;22.90;;;17.47;;
11761;SDS011;5938;47.098;15.474;2022-11-18T21:40:51;25.77;;;18.40;;
11761;SDS011;5938;47.098;15.474;2022-11-18T21:44:55;33.50;;;22.10;;
11761;SDS011;5938;47.098;15.474;2022-11-18T21:49:00;28.80;;;20.63;;
11761;SDS011;5938;47.098;15.474;2022-11-18T21:53:03;24.63;;;18.77;;
11761;SDS011;5938;47.098;15.474;2022-11-18T21:57:07;32.70;;;20.90;;
11761;SDS011;5938;47.098;15.474;2022-11-18T22:01:11;27.13;;;21.73;;
11761;SDS011;5938;47.098;15.474;2022-11-18T22:05:18;31.43;;;20.30;;
11761;SDS011;5938;47.098;15.474;2022-11-18T22:09:22;28.37;;;20.23;;
11761;SDS011;5938;47.098;15.474;2022-11-18T22:13:25;32.23;;;19.90;;
11761;SDS011;5938;47.098;15.474;2022-11-18T22:17:29;28.93;;;19.67;;
11761;SDS011;5938;47.098;15.474;2022-11-18T22:21:33;28.43;;;20.70;;
11761;SDS011;5938;47.098;15.474;2022-11-18T22:25:37;27.63;;;19.57;;
11761;SDS011;5938;47.098;15.474;2022-11-18T22:29:40;29.80;;;18.93;;
11761;SDS011;5938;47.098;15.474;2022-11-18T22:33:43;24.20;;;17.10;;
11761;SDS011;5938;47.098;15.474;2022-11-18T22:37:48;21.83;;;16.30;;
11761;SDS011;5938;47.098;15.474;2022-11-18T22:41:51;25.80;;;18.63;;
11761;SDS011;5938;47.098;15.474;2022-11-18T22:46:12;27.20;;;21.77;;
11761;SDS011;5938;47.098;15.474;2022-11-18T22:50:15;31.47;;;17.50;;
11761;SDS011;5938;47.098;15.474;2022-11-18T22:54:20;25.47;;;18.67;;
11761;SDS011;5938;47.098;15.474;2022-11-18T22:58:39;25.17;;;16.83;;
11761;SDS011;5938;47.098;15.474;2022-11-18T23:02:43;24.70;;;17.00;;
11761;SDS011;5938;47.098;15.474;2022-11-18T23:06:46;33.80;;;19.73;;
11761;SDS011;5938;47.098;15.474;2022-11-18T23:10:51;25.93;;;18.03;;
11761;SDS011;5938;47.098;15.474;2022-11-18T23:14:56;30.60;;;18.90;;
11761;SDS011;5938;47.098;15.474;2022-11-18T23:19:00;23.20;;;16.53;;
11761;SDS011;5938;47.098;15.474;2022-11-18T23:23:05;28.37;;;18.97;;
11761;SDS011;5938;47.098;15.474;2022-11-18T23:27:09;21.67;;;15.60;;
11761;SDS011;5938;47.098;15.474;2022-11-18T23:31:13;29.00;;;18.07;;
11761;SDS011;5938;47.098;15.474;2022-11-18T23:35:18;30.20;;;19.43;;
11761;SDS011;5938;47.098;15.474;2022-11-18T23:39:22;24.83;;;17.47;;
11761;SDS011;5938;47.098;15.474;2022-11-18T23:43:28;27.43;;;17.30;;
11761;SDS011;5938;47.098;15.474;2022-11-18T23:47:32;24.00;;;16.23;;
11761;SDS011;5938;47.098;15.474;2022-11-18T23:51:36;24.90;;;17.20;;
11761;SDS011;5938;47.098;15.474;2022-11-18T23:55:39;24.67;;;17.90;;
11761;SDS011;5938;47.098;15.474;2022-11-18T23:59:44;27.70;;;17.70;;
